sensor_id;sensor_type;location;lat;lon;timestamp;pressure;altitude;pressure_sealevel;temperature;humidity
70200;BME280;57587;55.688;37.600;2023-04-28T00:00:53;98951.50;;;13.93;55.81
70200;BME280;57587;55.688;37.600;2023-04-28T00:03:20;98945.56;;;13.84;56.17
70200;BME280;57587;55.688;37.600;2023-04-28T00:05:48;98943.31;;;13.81;56.03
70200;BME280;57587;55.688;37.600;2023-04-28T00:08:15;98947.31;;;13.78;56.37
70200;BME280;57587;55.688;37.600;2023-04-28T00:10:42;98946.25;;;13.79;56.59
70200;BME280;57587;55.688;37.600;2023-04-28T00:13:09;98939.44;;;13.77;56.74
70200;BME280;57587;55.688;37.600;2023-04-28T00:15:37;98945.94;;;13.69;56.90
70200;BME280;57587;55.688;37.600;2023-04-28T00:18:04;98935.00;;;13.64;56.88
70200;BME280;57587;55.688;37.600;2023-04-28T00:20:31;98935.00;;;13.64;56.97
70200;BME280;57587;55.688;37.600;2023-04-28T00:22:58;98935.88;;;13.58;57.41
70200;BME280;57587;55.688;37.600;2023-04-28T00:25:26;98932.13;;;13.59;57.19
70200;BME280;57587;55.688;37.600;2023-04-28T00:27:53;98933.78;;;13.60;57.48
70200;BME280;57587;55.688;37.600;2023-04-28T00:30:20;98925.94;;;13.58;57.35
70200;BME280;57587;55.688;37.600;2023-04-28T00:32:47;98933.19;;;13.58;57.19
70200;BME280;57587;55.688;37.600;2023-04-28T00:35:14;98927.19;;;13.56;57.46
70200;BME280;57587;55.688;37.600;2023-04-28T00:37:42;98922.88;;;13.55;57.56
70200;BME280;57587;55.688;37.600;2023-04-28T00:40:09;98923.09;;;13.53;57.47
70200;BME280;57587;55.688;37.600;2023-04-28T00:42:36;98919.38;;;13.54;57.90
70200;BME280;57587;55.688;37.600;2023-04-28T00:45:04;98920.41;;;13.53;57.76
70200;BME280;57587;55.688;37.600;2023-04-28T00:47:36;98921.66;;;13.51;58.21
70200;BME280;57587;55.688;37.600;2023-04-28T00:50:04;98923.75;;;13.49;58.61
70200;BME280;57587;55.688;37.600;2023-04-28T00:52:37;98907.00;;;13.47;58.49
70200;BME280;57587;55.688;37.600;2023-04-28T00:55:06;98913.00;;;13.49;58.52
70200;BME280;57587;55.688;37.600;2023-04-28T00:57:35;98918.38;;;13.49;58.85
70200;BME280;57587;55.688;37.600;2023-04-28T01:00:02;98914.69;;;13.43;58.98
70200;BME280;57587;55.688;37.600;2023-04-28T01:02:31;98917.16;;;13.45;59.41
70200;BME280;57587;55.688;37.600;2023-04-28T01:04:59;98916.78;;;13.41;59.52
70200;BME280;57587;55.688;37.600;2023-04-28T01:07:30;98921.31;;;13.41;59.15
70200;BME280;57587;55.688;37.600;2023-04-28T01:09:57;98925.06;;;13.40;59.48
70200;BME280;57587;55.688;37.600;2023-04-28T01:12:29;98916.44;;;13.24;59.43
70200;BME280;57587;55.688;37.600;2023-04-28T01:14:57;98927.59;;;13.28;59.58
70200;BME280;57587;55.688;37.600;2023-04-28T01:17:25;98927.03;;;13.26;59.53
70200;BME280;57587;55.688;37.600;2023-04-28T01:19:53;98917.69;;;13.28;59.28
70200;BME280;57587;55.688;37.600;2023-04-28T01:22:20;98923.47;;;13.25;59.48
70200;BME280;57587;55.688;37.600;2023-04-28T01:24:47;98923.31;;;13.20;59.11
70200;BME280;57587;55.688;37.600;2023-04-28T01:27:15;98938.97;;;13.23;59.09
70200;BME280;57587;55.688;37.600;2023-04-28T01:29:43;98937.59;;;13.14;59.17
70200;BME280;57587;55.688;37.600;2023-04-28T01:32:10;98931.84;;;13.10;59.10
70200;BME280;57587;55.688;37.600;2023-04-28T01:34:38;98938.22;;;13.09;59.22
70200;BME280;57587;55.688;37.600;2023-04-28T01:37:05;98934.94;;;13.07;59.33
70200;BME280;57587;55.688;37.600;2023-04-28T01:39:35;98933.28;;;13.06;59.18
70200;BME280;57587;55.688;37.600;2023-04-28T01:42:02;98937.25;;;13.04;59.10
70200;BME280;57587;55.688;37.600;2023-04-28T01:44:30;98941.19;;;13.01;59.25
70200;BME280;57587;55.688;37.600;2023-04-28T01:46:57;98930.47;;;12.95;59.19
70200;BME280;57587;55.688;37.600;2023-04-28T01:49:24;98929.00;;;12.99;59.60
70200;BME280;57587;55.688;37.600;2023-04-28T01:51:51;98932.50;;;12.99;59.46
70200;BME280;57587;55.688;37.600;2023-04-28T01:54:18;98935.84;;;12.95;59.47
70200;BME280;57587;55.688;37.600;2023-04-28T01:56:45;98937.06;;;12.99;59.39
70200;BME280;57587;55.688;37.600;2023-04-28T01:59:14;98932.75;;;12.98;59.40
70200;BME280;57587;55.688;37.600;2023-04-28T02:01:42;98923.63;;;12.99;59.33
70200;BME280;57587;55.688;37.600;2023-04-28T02:04:10;98921.56;;;13.01;59.55
70200;BME280;57587;55.688;37.600;2023-04-28T02:06:39;98916.16;;;13.07;59.27
70200;BME280;57587;55.688;37.600;2023-04-28T02:09:06;98916.53;;;13.11;59.14
70200;BME280;57587;55.688;37.600;2023-04-28T02:11:33;98922.06;;;13.16;58.96
70200;BME280;57587;55.688;37.600;2023-04-28T02:14:00;98921.91;;;13.11;58.92
70200;BME280;57587;55.688;37.600;2023-04-28T02:16:47;98928.91;;;13.12;58.92
70200;BME280;57587;55.688;37.600;2023-04-28T02:19:14;98927.47;;;13.09;59.08
70200;BME280;57587;55.688;37.600;2023-04-28T02:21:42;98922.34;;;13.08;59.12
70200;BME280;57587;55.688;37.600;2023-04-28T02:24:09;98919.38;;;13.16;59.00
70200;BME280;57587;55.688;37.600;2023-04-28T02:26:36;98914.84;;;13.17;58.72
70200;BME280;57587;55.688;37.600;2023-04-28T02:29:03;98916.88;;;13.21;58.89
70200;BME280;57587;55.688;37.600;2023-04-28T02:31:32;98918.50;;;13.22;58.71
70200;BME280;57587;55.688;37.600;2023-04-28T02:34:00;98931.53;;;13.25;59.06
70200;BME280;57587;55.688;37.600;2023-04-28T02:36:27;98934.44;;;13.24;58.95
70200;BME280;57587;55.688;37.600;2023-04-28T02:38:54;98940.00;;;13.22;59.30
70200;BME280;57587;55.688;37.600;2023-04-28T02:41:21;98935.06;;;13.19;58.98
70200;BME280;57587;55.688;37.600;2023-04-28T02:43:49;98942.91;;;13.27;59.41
70200;BME280;57587;55.688;37.600;2023-04-28T02:46:16;98937.72;;;13.32;58.95
70200;BME280;57587;55.688;37.600;2023-04-28T02:48:43;98944.09;;;13.38;59.17
70200;BME280;57587;55.688;37.600;2023-04-28T02:51:11;98938.91;;;13.36;59.00
70200;BME280;57587;55.688;37.600;2023-04-28T02:53:40;98958.97;;;13.34;59.45
70200;BME280;57587;55.688;37.600;2023-04-28T02:56:07;98947.22;;;13.35;59.12
70200;BME280;57587;55.688;37.600;2023-04-28T02:58:35;98951.53;;;13.36;58.95
70200;BME280;57587;55.688;37.600;2023-04-28T03:01:02;98956.91;;;13.36;59.50
70200;BME280;57587;55.688;37.600;2023-04-28T03:03:29;98945.94;;;13.37;59.37
70200;BME280;57587;55.688;37.600;2023-04-28T03:05:56;98939.34;;;13.33;59.38
70200;BME280;57587;55.688;37.600;2023-04-28T03:08:24;98945.94;;;13.37;59.19
70200;BME280;57587;55.688;37.600;2023-04-28T03:10:52;98939.97;;;13.35;59.35
70200;BME280;57587;55.688;37.600;2023-04-28T03:13:19;98936.66;;;13.33;59.17
70200;BME280;57587;55.688;37.600;2023-04-28T03:15:48;98939.16;;;13.35;59.43
70200;BME280;57587;55.688;37.600;2023-04-28T03:18:15;98943.69;;;13.34;59.40
70200;BME280;57587;55.688;37.600;2023-04-28T03:20:43;98964.59;;;13.32;59.89
70200;BME280;57587;55.688;37.600;2023-04-28T03:23:10;98956.13;;;13.22;60.22
70200;BME280;57587;55.688;37.600;2023-04-28T03:25:37;98950.97;;;13.21;60.33
70200;BME280;57587;55.688;37.600;2023-04-28T03:28:05;98967.28;;;13.32;60.48
70200;BME280;57587;55.688;37.600;2023-04-28T03:30:32;98965.16;;;13.34;60.05
70200;BME280;57587;55.688;37.600;2023-04-28T03:32:59;98964.16;;;13.35;60.04
70200;BME280;57587;55.688;37.600;2023-04-28T03:35:26;98970.59;;;13.28;60.08
70200;BME280;57587;55.688;37.600;2023-04-28T03:37:53;98966.84;;;13.35;60.03
70200;BME280;57587;55.688;37.600;2023-04-28T03:40:21;98968.81;;;13.47;59.71
70200;BME280;57587;55.688;37.600;2023-04-28T03:43:16;98970.47;;;13.48;59.63
70200;BME280;57587;55.688;37.600;2023-04-28T03:45:58;98976.13;;;13.65;59.50
70200;BME280;57587;55.688;37.600;2023-04-28T03:48:25;98972.13;;;13.99;58.49
70200;BME280;57587;55.688;37.600;2023-04-28T03:50:54;98965.38;;;14.15;57.94
70200;BME280;57587;55.688;37.600;2023-04-28T03:53:23;98983.69;;;14.24;58.10
70200;BME280;57587;55.688;37.600;2023-04-28T03:55:50;98970.22;;;14.24;57.81
70200;BME280;57587;55.688;37.600;2023-04-28T03:58:17;98971.00;;;14.32;57.23
70200;BME280;57587;55.688;37.600;2023-04-28T04:00:45;98975.94;;;14.35;57.51
70200;BME280;57587;55.688;37.600;2023-04-28T04:03:12;98978.88;;;14.51;57.23
70200;BME280;57587;55.688;37.600;2023-04-28T04:05:42;98986.88;;;14.58;56.52
70200;BME280;57587;55.688;37.600;2023-04-28T04:08:09;98974.72;;;14.56;56.97
70200;BME280;57587;55.688;37.600;2023-04-28T04:10:37;98991.09;;;14.54;57.06
70200;BME280;57587;55.688;37.600;2023-04-28T04:13:04;98989.00;;;14.56;56.87
70200;BME280;57587;55.688;37.600;2023-04-28T04:15:31;98984.88;;;14.53;56.93
70200;BME280;57587;55.688;37.600;2023-04-28T04:18:00;98983.47;;;14.51;56.79
70200;BME280;57587;55.688;37.600;2023-04-28T04:20:37;98983.31;;;14.64;56.38
70200;BME280;57587;55.688;37.600;2023-04-28T04:23:04;98974.03;;;14.60;56.76
70200;BME280;57587;55.688;37.600;2023-04-28T04:25:31;98979.34;;;14.67;56.80
70200;BME280;57587;55.688;37.600;2023-04-28T04:27:58;98975.91;;;14.78;56.65
70200;BME280;57587;55.688;37.600;2023-04-28T04:30:26;98983.91;;;14.85;56.30
70200;BME280;57587;55.688;37.600;2023-04-28T04:32:53;98989.66;;;14.88;56.19
70200;BME280;57587;55.688;37.600;2023-04-28T04:35:21;98989.50;;;14.83;55.91
70200;BME280;57587;55.688;37.600;2023-04-28T04:37:49;98997.91;;;14.93;55.90
70200;BME280;57587;55.688;37.600;2023-04-28T04:40:17;98999.06;;;14.97;56.44
70200;BME280;57587;55.688;37.600;2023-04-28T04:42:48;98991.97;;;15.03;57.04
70200;BME280;57587;55.688;37.600;2023-04-28T04:45:17;99000.09;;;15.15;56.24
70200;BME280;57587;55.688;37.600;2023-04-28T04:47:45;98998.63;;;15.01;56.77
70200;BME280;57587;55.688;37.600;2023-04-28T04:50:13;98999.13;;;15.09;56.38
70200;BME280;57587;55.688;37.600;2023-04-28T04:52:40;99001.91;;;15.21;56.56
70200;BME280;57587;55.688;37.600;2023-04-28T04:55:08;99011.81;;;15.20;56.24
70200;BME280;57587;55.688;37.600;2023-04-28T04:57:39;99018.38;;;15.13;56.78
70200;BME280;57587;55.688;37.600;2023-04-28T05:00:17;99016.94;;;15.10;56.77
70200;BME280;57587;55.688;37.600;2023-04-28T05:02:45;99014.84;;;15.12;57.41
70200;BME280;57587;55.688;37.600;2023-04-28T05:05:15;99010.53;;;14.93;57.27
70200;BME280;57587;55.688;37.600;2023-04-28T05:08:11;99014.84;;;15.12;57.07
70200;BME280;57587;55.688;37.600;2023-04-28T05:10:39;99019.66;;;15.40;56.22
70200;BME280;57587;55.688;37.600;2023-04-28T05:13:07;99020.63;;;15.46;55.90
70200;BME280;57587;55.688;37.600;2023-04-28T05:15:34;99008.78;;;15.47;56.33
70200;BME280;57587;55.688;37.600;2023-04-28T05:18:24;99020.06;;;15.56;55.85
70200;BME280;57587;55.688;37.600;2023-04-28T05:20:52;99022.16;;;15.54;55.88
70200;BME280;57587;55.688;37.600;2023-04-28T05:23:19;99027.47;;;15.60;55.96
70200;BME280;57587;55.688;37.600;2023-04-28T05:25:47;99026.09;;;15.70;55.75
70200;BME280;57587;55.688;37.600;2023-04-28T05:28:14;99022.28;;;15.77;56.34
70200;BME280;57587;55.688;37.600;2023-04-28T05:30:43;99022.38;;;15.82;55.57
70200;BME280;57587;55.688;37.600;2023-04-28T05:33:11;99030.19;;;16.02;56.01
70200;BME280;57587;55.688;37.600;2023-04-28T05:35:40;99034.41;;;15.98;55.06
70200;BME280;57587;55.688;37.600;2023-04-28T05:38:07;99029.00;;;15.98;55.30
70200;BME280;57587;55.688;37.600;2023-04-28T05:40:35;99027.72;;;16.12;54.92
70200;BME280;57587;55.688;37.600;2023-04-28T05:43:02;99038.19;;;16.21;55.37
70200;BME280;57587;55.688;37.600;2023-04-28T05:45:29;99036.06;;;16.23;55.00
70200;BME280;57587;55.688;37.600;2023-04-28T05:47:56;99031.84;;;16.27;54.61
70200;BME280;57587;55.688;37.600;2023-04-28T05:50:24;99033.50;;;16.51;54.70
70200;BME280;57587;55.688;37.600;2023-04-28T05:52:52;99029.75;;;16.76;54.17
70200;BME280;57587;55.688;37.600;2023-04-28T05:55:20;99024.09;;;16.89;53.94
70200;BME280;57587;55.688;37.600;2023-04-28T05:57:48;99026.91;;;16.82;53.53
70200;BME280;57587;55.688;37.600;2023-04-28T06:00:20;99031.81;;;16.74;53.77
70200;BME280;57587;55.688;37.600;2023-04-28T06:02:51;99023.59;;;16.69;53.45
70200;BME280;57587;55.688;37.600;2023-04-28T06:05:20;99034.53;;;16.74;53.78
70200;BME280;57587;55.688;37.600;2023-04-28T06:07:50;99038.41;;;16.78;53.64
70200;BME280;57587;55.688;37.600;2023-04-28T06:10:21;99036.66;;;16.36;54.47
70200;BME280;57587;55.688;37.600;2023-04-28T06:12:48;99030.06;;;16.56;54.47
70200;BME280;57587;55.688;37.600;2023-04-28T06:15:15;99015.28;;;16.58;54.15
70200;BME280;57587;55.688;37.600;2023-04-28T06:17:42;99023.25;;;16.65;54.41
70200;BME280;57587;55.688;37.600;2023-04-28T06:20:10;99021.97;;;16.56;54.70
70200;BME280;57587;55.688;37.600;2023-04-28T06:22:40;99023.28;;;16.42;55.07
70200;BME280;57587;55.688;37.600;2023-04-28T06:25:07;99015.88;;;16.37;55.37
70200;BME280;57587;55.688;37.600;2023-04-28T06:27:42;99022.44;;;16.41;55.39
70200;BME280;57587;55.688;37.600;2023-04-28T06:30:12;99020.69;;;16.47;55.44
70200;BME280;57587;55.688;37.600;2023-04-28T06:32:43;99023.63;;;16.45;55.71
70200;BME280;57587;55.688;37.600;2023-04-28T06:35:10;99031.50;;;16.47;56.47
70200;BME280;57587;55.688;37.600;2023-04-28T06:37:37;99026.09;;;16.35;57.88
70200;BME280;57587;55.688;37.600;2023-04-28T06:40:05;99036.44;;;16.26;57.65
70200;BME280;57587;55.688;37.600;2023-04-28T06:42:32;99025.03;;;16.24;58.00
70200;BME280;57587;55.688;37.600;2023-04-28T06:45:08;99026.22;;;16.52;57.84
70200;BME280;57587;55.688;37.600;2023-04-28T06:47:36;99029.97;;;16.51;57.26
70200;BME280;57587;55.688;37.600;2023-04-28T06:50:07;99024.81;;;16.49;57.67
70200;BME280;57587;55.688;37.600;2023-04-28T06:52:35;99030.19;;;16.37;58.15
70200;BME280;57587;55.688;37.600;2023-04-28T06:55:07;99028.69;;;16.30;57.87
70200;BME280;57587;55.688;37.600;2023-04-28T06:57:35;99032.91;;;16.37;58.59
70200;BME280;57587;55.688;37.600;2023-04-28T07:00:04;99038.91;;;16.63;57.18
70200;BME280;57587;55.688;37.600;2023-04-28T07:02:32;99043.09;;;16.71;57.27
70200;BME280;57587;55.688;37.600;2023-04-28T07:05:02;99023.50;;;16.64;57.67
70200;BME280;57587;55.688;37.600;2023-04-28T07:07:32;99012.72;;;16.40;57.87
70200;BME280;57587;55.688;37.600;2023-04-28T07:09:59;99040.66;;;16.57;57.86
70200;BME280;57587;55.688;37.600;2023-04-28T07:12:29;99037.09;;;16.69;58.39
70200;BME280;57587;55.688;37.600;2023-04-28T07:14:56;99040.06;;;16.67;57.92
70200;BME280;57587;55.688;37.600;2023-04-28T07:17:23;99040.75;;;16.63;58.14
70200;BME280;57587;55.688;37.600;2023-04-28T07:19:51;99056.72;;;16.29;58.89
70200;BME280;57587;55.688;37.600;2023-04-28T07:22:18;99046.59;;;15.89;60.04
70200;BME280;57587;55.688;37.600;2023-04-28T07:24:45;99049.38;;;15.94;60.06
70200;BME280;57587;55.688;37.600;2023-04-28T07:27:12;99050.38;;;16.11;59.71
70200;BME280;57587;55.688;37.600;2023-04-28T07:29:39;99044.72;;;16.01;59.92
70200;BME280;57587;55.688;37.600;2023-04-28T07:32:06;99057.28;;;15.96;60.54
70200;BME280;57587;55.688;37.600;2023-04-28T07:34:37;99051.97;;;15.89;61.43
70200;BME280;57587;55.688;37.600;2023-04-28T07:37:04;99063.47;;;15.96;61.44
70200;BME280;57587;55.688;37.600;2023-04-28T07:39:33;99051.38;;;15.87;61.88
70200;BME280;57587;55.688;37.600;2023-04-28T07:42:01;99046.44;;;15.84;62.59
70200;BME280;57587;55.688;37.600;2023-04-28T07:44:30;99053.88;;;16.00;62.10
70200;BME280;57587;55.688;37.600;2023-04-28T07:47:01;99057.34;;;16.78;60.62
70200;BME280;57587;55.688;37.600;2023-04-28T07:49:28;99038.66;;;17.28;59.84
70200;BME280;57587;55.688;37.600;2023-04-28T07:51:55;99048.66;;;17.57;58.37
70200;BME280;57587;55.688;37.600;2023-04-28T07:54:23;99046.38;;;18.11;56.70
70200;BME280;57587;55.688;37.600;2023-04-28T07:56:50;99052.88;;;20.30;51.49
70200;BME280;57587;55.688;37.600;2023-04-28T07:59:17;99055.66;;;21.30;47.45
70200;BME280;57587;55.688;37.600;2023-04-28T08:01:45;99046.34;;;21.15;48.14
70200;BME280;57587;55.688;37.600;2023-04-28T08:04:12;99049.28;;;20.56;49.12
70200;BME280;57587;55.688;37.600;2023-04-28T08:06:40;99043.09;;;19.69;50.74
70200;BME280;57587;55.688;37.600;2023-04-28T08:09:07;99044.94;;;19.15;52.32
70200;BME280;57587;55.688;37.600;2023-04-28T08:11:34;99044.78;;;18.82;52.85
70200;BME280;57587;55.688;37.600;2023-04-28T08:14:01;99046.19;;;18.51;53.75
70200;BME280;57587;55.688;37.600;2023-04-28T08:16:30;99050.66;;;18.07;55.05
70200;BME280;57587;55.688;37.600;2023-04-28T08:18:57;99043.75;;;17.54;56.14
70200;BME280;57587;55.688;37.600;2023-04-28T08:21:26;99056.81;;;17.16;57.42
70200;BME280;57587;55.688;37.600;2023-04-28T08:23:53;99060.59;;;16.68;59.76
70200;BME280;57587;55.688;37.600;2023-04-28T08:26:21;99058.13;;;16.43;61.62
70200;BME280;57587;55.688;37.600;2023-04-28T08:28:48;99063.41;;;16.14;62.64
70200;BME280;57587;55.688;37.600;2023-04-28T08:31:15;99067.91;;;15.90;63.54
70200;BME280;57587;55.688;37.600;2023-04-28T08:33:42;99067.06;;;15.78;64.15
70200;BME280;57587;55.688;37.600;2023-04-28T08:36:10;99066.56;;;15.70;64.51
70200;BME280;57587;55.688;37.600;2023-04-28T08:38:41;99059.06;;;15.72;65.66
70200;BME280;57587;55.688;37.600;2023-04-28T08:41:12;99063.47;;;15.66;66.45
70200;BME280;57587;55.688;37.600;2023-04-28T08:43:41;99058.47;;;15.70;66.32
70200;BME280;57587;55.688;37.600;2023-04-28T08:46:09;99069.25;;;15.70;65.23
70200;BME280;57587;55.688;37.600;2023-04-28T08:48:42;99067.03;;;15.48;65.10
70200;BME280;57587;55.688;37.600;2023-04-28T08:51:34;99066.56;;;15.51;66.23
70200;BME280;57587;55.688;37.600;2023-04-28T08:54:07;99062.78;;;15.40;66.33
70200;BME280;57587;55.688;37.600;2023-04-28T08:56:52;99064.00;;;15.26;67.44
70200;BME280;57587;55.688;37.600;2023-04-28T08:59:19;99072.41;;;14.99;68.20
70200;BME280;57587;55.688;37.600;2023-04-28T09:01:50;99062.22;;;15.02;69.76
70200;BME280;57587;55.688;37.600;2023-04-28T09:04:18;99065.75;;;15.02;68.87
70200;BME280;57587;55.688;37.600;2023-04-28T09:06:48;99062.53;;;15.12;68.92
70200;BME280;57587;55.688;37.600;2023-04-28T09:09:24;99064.31;;;15.18;69.96
70200;BME280;57587;55.688;37.600;2023-04-28T09:11:58;99064.22;;;15.43;68.75
70200;BME280;57587;55.688;37.600;2023-04-28T09:14:31;99061.84;;;15.65;67.61
70200;BME280;57587;55.688;37.600;2023-04-28T09:16:59;99060.53;;;15.86;66.36
70200;BME280;57587;55.688;37.600;2023-04-28T09:19:34;99062.25;;;16.34;65.41
70200;BME280;57587;55.688;37.600;2023-04-28T09:22:05;99066.94;;;16.27;66.08
70200;BME280;57587;55.688;37.600;2023-04-28T09:24:51;99064.56;;;16.19;65.54
70200;BME280;57587;55.688;37.600;2023-04-28T09:27:25;99064.72;;;16.24;65.40
70200;BME280;57587;55.688;37.600;2023-04-28T09:29:53;99062.84;;;16.36;65.62
70200;BME280;57587;55.688;37.600;2023-04-28T09:32:21;99061.41;;;16.69;65.09
70200;BME280;57587;55.688;37.600;2023-04-28T09:34:52;99061.66;;;16.91;64.31
70200;BME280;57587;55.688;37.600;2023-04-28T09:37:22;99051.88;;;17.13;63.17
70200;BME280;57587;55.688;37.600;2023-04-28T09:39:51;99050.31;;;17.29;62.92
70200;BME280;57587;55.688;37.600;2023-04-28T09:47:36;99052.84;;;17.07;61.76
70200;BME280;57587;55.688;37.600;2023-04-28T09:50:05;99060.47;;;16.98;63.10
70200;BME280;57587;55.688;37.600;2023-04-28T09:52:34;99060.75;;;16.85;62.78
70200;BME280;57587;55.688;37.600;2023-04-28T09:55:04;99061.66;;;16.55;62.82
70200;BME280;57587;55.688;37.600;2023-04-28T09:57:32;99067.31;;;16.42;62.97
70200;BME280;57587;55.688;37.600;2023-04-28T10:00:01;99056.03;;;16.45;63.18
70200;BME280;57587;55.688;37.600;2023-04-28T10:02:34;99051.22;;;16.35;62.74
70200;BME280;57587;55.688;37.600;2023-04-28T10:05:05;99065.88;;;16.28;63.09
70200;BME280;57587;55.688;37.600;2023-04-28T10:07:38;99066.94;;;16.50;62.99
70200;BME280;57587;55.688;37.600;2023-04-28T10:10:06;99064.97;;;16.57;62.06
70200;BME280;57587;55.688;37.600;2023-04-28T10:12:34;99063.06;;;16.70;62.42
70200;BME280;57587;55.688;37.600;2023-04-28T10:15:06;99073.78;;;16.76;61.91
70200;BME280;57587;55.688;37.600;2023-04-28T10:17:35;99069.53;;;16.92;61.60
70200;BME280;57587;55.688;37.600;2023-04-28T10:20:03;99057.84;;;17.15;61.05
70200;BME280;57587;55.688;37.600;2023-04-28T10:22:51;99067.19;;;17.36;59.86
70200;BME280;57587;55.688;37.600;2023-04-28T10:27:49;99067.69;;;17.62;60.40
70200;BME280;57587;55.688;37.600;2023-04-28T10:30:20;99064.09;;;17.73;59.81
70200;BME280;57587;55.688;37.600;2023-04-28T10:33:21;99062.78;;;17.87;58.56
70200;BME280;57587;55.688;37.600;2023-04-28T10:35:50;99061.16;;;18.20;57.93
70200;BME280;57587;55.688;37.600;2023-04-28T10:38:18;99055.97;;;18.35;57.17
70200;BME280;57587;55.688;37.600;2023-04-28T10:40:50;99069.53;;;18.35;56.65
70200;BME280;57587;55.688;37.600;2023-04-28T10:56:24;99068.28;;;17.92;58.04
70200;BME280;57587;55.688;37.600;2023-04-28T10:58:52;99072.59;;;17.65;57.66
70200;BME280;57587;55.688;37.600;2023-04-28T11:04:07;99080.41;;;17.21;59.04
70200;BME280;57587;55.688;37.600;2023-04-28T11:07:07;99065.75;;;17.05;59.13
70200;BME280;57587;55.688;37.600;2023-04-28T11:12:05;99080.09;;;16.70;61.43
70200;BME280;57587;55.688;37.600;2023-04-28T11:14:36;99091.16;;;16.57;61.53
70200;BME280;57587;55.688;37.600;2023-04-28T11:17:08;99086.09;;;16.49;62.07
70200;BME280;57587;55.688;37.600;2023-04-28T11:19:43;99094.63;;;16.34;62.17
70200;BME280;57587;55.688;37.600;2023-04-28T11:22:18;99096.50;;;16.22;63.30
70200;BME280;57587;55.688;37.600;2023-04-28T11:24:56;99092.44;;;16.01;64.48
70200;BME280;57587;55.688;37.600;2023-04-28T11:27:31;99089.53;;;16.02;63.88
70200;BME280;57587;55.688;37.600;2023-04-28T11:29:59;99090.59;;;16.13;63.20
70200;BME280;57587;55.688;37.600;2023-04-28T11:32:34;99090.31;;;16.33;62.93
70200;BME280;57587;55.688;37.600;2023-04-28T11:35:02;99100.41;;;16.49;63.79
70200;BME280;57587;55.688;37.600;2023-04-28T11:37:32;99090.56;;;16.67;62.19
70200;BME280;57587;55.688;37.600;2023-04-28T11:40:09;99088.72;;;16.79;61.93
70200;BME280;57587;55.688;37.600;2023-04-28T11:42:46;99096.44;;;16.87;61.69
70200;BME280;57587;55.688;37.600;2023-04-28T11:45:13;99080.69;;;16.96;60.93
70200;BME280;57587;55.688;37.600;2023-04-28T11:47:40;99087.97;;;16.95;60.90
70200;BME280;57587;55.688;37.600;2023-04-28T11:50:08;99087.50;;;16.98;60.90
70200;BME280;57587;55.688;37.600;2023-04-28T11:52:35;99080.00;;;17.00;59.61
70200;BME280;57587;55.688;37.600;2023-04-28T11:55:02;99079.53;;;17.03;60.13
70200;BME280;57587;55.688;37.600;2023-04-28T11:57:29;99075.97;;;17.03;59.58
70200;BME280;57587;55.688;37.600;2023-04-28T12:00:15;99079.16;;;17.00;59.47
70200;BME280;57587;55.688;37.600;2023-04-28T12:02:48;99074.81;;;16.99;60.37
70200;BME280;57587;55.688;37.600;2023-04-28T12:05:15;99075.28;;;16.96;59.51
70200;BME280;57587;55.688;37.600;2023-04-28T12:07:43;99078.72;;;16.91;59.87
70200;BME280;57587;55.688;37.600;2023-04-28T12:10:15;99073.53;;;16.90;60.00
70200;BME280;57587;55.688;37.600;2023-04-28T12:12:43;99076.00;;;16.91;60.04
70200;BME280;57587;55.688;37.600;2023-04-28T12:15:19;99080.56;;;16.91;59.66
70200;BME280;57587;55.688;37.600;2023-04-28T12:17:48;99063.06;;;16.93;59.66
70200;BME280;57587;55.688;37.600;2023-04-28T12:20:36;99064.25;;;16.97;59.60
70200;BME280;57587;55.688;37.600;2023-04-28T12:23:05;99052.84;;;17.07;59.61
70200;BME280;57587;55.688;37.600;2023-04-28T12:25:44;99059.72;;;17.15;60.21
70200;BME280;57587;55.688;37.600;2023-04-28T12:28:13;99067.28;;;17.13;59.22
70200;BME280;57587;55.688;37.600;2023-04-28T12:30:40;99059.06;;;17.08;59.47
70200;BME280;57587;55.688;37.600;2023-04-28T12:33:25;99081.28;;;16.98;59.68
70200;BME280;57587;55.688;37.600;2023-04-28T12:35:53;99075.41;;;16.89;60.08
70200;BME280;57587;55.688;37.600;2023-04-28T12:38:24;99075.75;;;16.81;60.79
70200;BME280;57587;55.688;37.600;2023-04-28T12:40:51;99073.75;;;16.65;61.12
70200;BME280;57587;55.688;37.600;2023-04-28T12:43:18;99080.34;;;16.57;61.27
70200;BME280;57587;55.688;37.600;2023-04-28T12:45:47;99086.78;;;16.44;61.20
70200;BME280;57587;55.688;37.600;2023-04-28T12:48:15;99079.16;;;16.29;61.80
70200;BME280;57587;55.688;37.600;2023-04-28T12:50:42;99083.56;;;16.12;62.31
70200;BME280;57587;55.688;37.600;2023-04-28T12:53:09;99088.94;;;16.00;62.51
70200;BME280;57587;55.688;37.600;2023-04-28T12:55:36;99088.22;;;15.93;62.52
70200;BME280;57587;55.688;37.600;2023-04-28T12:58:07;99090.31;;;15.91;63.18
70200;BME280;57587;55.688;37.600;2023-04-28T13:00:34;99074.38;;;15.89;63.02
70200;BME280;57587;55.688;37.600;2023-04-28T13:03:01;99078.97;;;15.89;63.32
